createdAt,value
2022-11-03T00:02:01.763Z,4.82
2022-11-03T00:04:28.666Z,4.15
2022-11-03T00:09:23.793Z,4.77
2022-11-03T00:11:51.621Z,3.95
2022-11-03T00:14:19.374Z,4.18
2022-11-03T00:16:46.200Z,4.07
2022-11-03T00:21:41.598Z,4.30
2022-11-03T00:26:36.569Z,4.07
2022-11-03T00:29:09.477Z,4.28
2022-11-03T00:31:38.252Z,4.88
2022-11-03T00:34:05.902Z,3.97
2022-11-03T00:36:38.275Z,4.30
2022-11-03T00:39:06.045Z,4.32
2022-11-03T00:41:33.340Z,4.00
2022-11-03T00:44:00.311Z,5.10
2022-11-03T00:46:27.421Z,4.60
2022-11-03T00:48:54.105Z,4.15
2022-11-03T00:51:23.604Z,4.85
2022-11-03T00:53:54.815Z,4.43
2022-11-03T00:56:41.599Z,3.92
2022-11-03T00:59:10.086Z,4.45
2022-11-03T01:01:46.826Z,4.28
2022-11-03T01:04:35.097Z,4.07
2022-11-03T01:07:03.230Z,4.63
2022-11-03T01:09:35.706Z,3.92
2022-11-03T01:12:14.475Z,3.67
2022-11-03T01:14:49.917Z,3.67
2022-11-03T01:17:25.487Z,4.63
2022-11-03T01:19:53.043Z,5.50
2022-11-03T01:22:20.386Z,3.78
2022-11-03T01:24:47.398Z,4.40
2022-11-03T01:27:16.526Z,4.55
2022-11-03T01:29:43.240Z,4.78
2022-11-03T01:32:09.932Z,4.93
2022-11-03T01:34:36.829Z,5.03
2022-11-03T01:37:04.017Z,5.32
2022-11-03T01:39:30.708Z,5.00
2022-11-03T01:41:57.416Z,4.30
2022-11-03T01:44:27.252Z,4.22
2022-11-03T01:47:08.985Z,4.40
2022-11-03T01:49:43.104Z,3.75
2022-11-03T01:52:25.643Z,4.70
2022-11-03T01:54:58.817Z,3.80
2022-11-03T01:57:31.513Z,3.95
2022-11-03T01:59:59.125Z,3.50
2022-11-03T02:02:26.904Z,4.38
2022-11-03T02:04:55.160Z,4.18
2022-11-03T02:07:31.964Z,4.25
2022-11-03T02:09:58.767Z,4.13
2022-11-03T02:15:04.934Z,4.80
2022-11-03T02:17:33.189Z,4.70
2022-11-03T02:20:08.633Z,4.40
2022-11-03T02:22:44.226Z,4.50
2022-11-03T02:25:46.017Z,5.15
2022-11-03T02:28:16.267Z,4.05
2022-11-03T02:30:45.471Z,5.40
2022-11-03T02:33:31.719Z,3.83
2022-11-03T02:36:13.551Z,3.70
2022-11-03T02:38:56.368Z,3.95
2022-11-03T02:41:24.779Z,4.00
2022-11-03T02:43:54.203Z,3.63
2022-11-03T02:46:22.108Z,3.45
2022-11-03T02:48:49.159Z,3.83
2022-11-03T02:51:16.247Z,3.47
2022-11-03T02:53:55.639Z,3.72
2022-11-03T02:56:24.703Z,3.92
2022-11-03T02:59:04.578Z,4.43
2022-11-03T03:01:47.347Z,4.35
2022-11-03T03:04:36.990Z,5.35
2022-11-03T03:07:09.057Z,4.47
2022-11-03T03:09:46.298Z,4.45
2022-11-03T03:12:17.107Z,4.82
2022-11-03T03:14:46.832Z,4.35
2022-11-03T03:17:24.605Z,4.85
2022-11-03T03:20:05.917Z,5.03
2022-11-03T03:22:58.397Z,3.97
2022-11-03T03:25:32.747Z,4.68
2022-11-03T03:28:04.343Z,4.32
2022-11-03T03:30:32.465Z,3.97
2022-11-03T03:33:01.228Z,5.03
2022-11-03T03:35:30.847Z,4.60
2022-11-03T03:38:02.137Z,4.15
2022-11-03T03:40:40.879Z,4.22
2022-11-03T03:43:10.018Z,5.05
2022-11-03T03:45:38.444Z,4.28
2022-11-03T03:48:06.991Z,4.13
2022-11-03T03:50:37.446Z,4.72
2022-11-03T03:53:10.291Z,4.38
2022-11-03T03:55:43.677Z,3.97
2022-11-03T03:58:13.679Z,4.78
2022-11-03T04:00:41.438Z,4.22
2022-11-03T04:03:19.486Z,4.20
2022-11-03T04:05:46.537Z,3.67
2022-11-03T04:08:14.480Z,3.63
2022-11-03T04:10:41.186Z,4.35
2022-11-03T04:13:27.269Z,3.95
2022-11-03T04:16:12.675Z,3.70
2022-11-03T04:18:58.282Z,3.20
2022-11-03T04:21:43.725Z,3.63
2022-11-03T04:24:10.373Z,3.78
2022-11-03T04:26:36.996Z,3.97
2022-11-03T04:31:36.352Z,4.90
2022-11-03T04:34:10.089Z,3.60
2022-11-03T04:36:36.776Z,3.78
2022-11-03T04:39:19.602Z,4.10
2022-11-03T04:41:46.457Z,4.13
2022-11-03T04:46:45.328Z,4.05
2022-11-03T04:49:20.203Z,4.05
2022-11-03T04:51:47.513Z,3.78
2022-11-03T04:54:18.859Z,4.00
2022-11-03T04:56:45.534Z,4.55
2022-11-03T04:59:14.060Z,3.67
2022-11-03T05:01:41.096Z,3.80
2022-11-03T05:04:18.789Z,3.40
2022-11-03T05:06:53.065Z,3.50
2022-11-03T05:09:31.667Z,3.50
2022-11-03T05:11:59.172Z,3.63
2022-11-03T05:14:29.858Z,3.97
2022-11-03T05:16:57.253Z,3.50
2022-11-03T05:19:36.486Z,3.58
2022-11-03T05:22:04.820Z,4.57
2022-11-03T05:24:33.355Z,3.50
2022-11-03T05:27:00.424Z,3.28
2022-11-03T05:29:31.602Z,3.53
2022-11-03T05:31:58.597Z,5.07
2022-11-03T05:34:41.014Z,4.13
2022-11-03T05:37:25.825Z,4.22
2022-11-03T05:39:58.549Z,5.15
2022-11-03T05:42:30.135Z,4.05
2022-11-03T05:44:57.930Z,3.72
2022-11-03T05:47:27.980Z,4.53
2022-11-03T05:50:00.438Z,4.00
2022-11-03T05:52:28.085Z,3.83
2022-11-03T05:54:57.733Z,4.25
2022-11-03T05:57:28.289Z,4.30
2022-11-03T05:59:55.469Z,4.88
2022-11-03T06:02:41.570Z,4.47
2022-11-03T06:05:27.867Z,3.50
2022-11-03T06:07:57.289Z,4.18
2022-11-03T06:10:27.760Z,3.90
2022-11-03T06:13:21.884Z,3.67
2022-11-03T06:15:55.069Z,3.88
2022-11-03T06:18:29.893Z,3.28
2022-11-03T06:21:03.107Z,3.97
2022-11-03T06:23:29.839Z,3.17
2022-11-03T06:28:34.728Z,4.47
2022-11-03T06:31:01.412Z,4.22
2022-11-03T06:33:33.565Z,4.97
2022-11-03T06:36:11.182Z,5.13
2022-11-03T06:38:37.810Z,6.65
2022-11-03T06:41:04.576Z,5.82
2022-11-03T06:43:40.582Z,8.65
2022-11-03T06:46:33.622Z,8.85
2022-11-03T06:49:04.063Z,7.40
2022-11-03T06:51:34.485Z,6.90
2022-11-03T06:54:05.320Z,5.90
2022-11-03T06:56:36.613Z,6.00
2022-11-03T06:59:03.335Z,4.03
2022-11-03T07:01:33.419Z,4.00
2022-11-03T07:04:21.430Z,4.28
2022-11-03T07:09:22.851Z,4.20
2022-11-03T07:11:52.031Z,4.55
2022-11-03T07:14:24.709Z,4.00
2022-11-03T07:16:55.455Z,3.90
2022-11-03T07:19:26.539Z,4.38
2022-11-03T07:21:56.060Z,4.15
2022-11-03T07:24:27.572Z,5.05
2022-11-03T07:27:02.379Z,4.60
2022-11-03T07:29:30.792Z,3.47
2022-11-03T07:31:59.355Z,4.00
2022-11-03T07:34:32.521Z,3.35
2022-11-03T07:36:59.728Z,3.53
2022-11-03T07:39:33.800Z,3.42
2022-11-03T07:42:17.689Z,3.45
2022-11-03T07:44:45.264Z,4.47
2022-11-03T07:47:15.806Z,4.25
2022-11-03T07:49:42.758Z,3.60
2022-11-03T07:52:19.776Z,4.05
2022-11-03T07:54:46.821Z,3.53
2022-11-03T07:57:20.914Z,4.35
2022-11-03T07:59:50.775Z,3.30
2022-11-03T08:02:26.315Z,3.65
2022-11-03T08:04:52.996Z,3.70
2022-11-03T08:07:19.690Z,4.07
2022-11-03T08:09:46.366Z,3.15
2022-11-03T08:12:13.067Z,3.42
2022-11-03T08:14:39.703Z,3.33
2022-11-03T08:17:06.379Z,3.05
2022-11-03T08:21:59.953Z,3.28
2022-11-03T08:26:53.168Z,3.08
2022-11-03T08:29:19.832Z,3.40
2022-11-03T08:34:13.392Z,3.90
2022-11-03T08:39:06.612Z,3.85
2022-11-03T08:41:33.353Z,3.35
2022-11-03T08:46:26.757Z,3.78
2022-11-03T08:51:20.208Z,3.53
2022-11-03T08:56:20.475Z,3.70
2022-11-03T08:58:49.015Z,3.90
2022-11-03T09:01:16.332Z,3.30
2022-11-03T09:03:43.243Z,3.33
2022-11-03T09:06:10.457Z,3.42
2022-11-03T09:11:23.871Z,3.40
2022-11-03T09:13:50.540Z,3.22
2022-11-03T09:18:44.066Z,4.03
2022-11-03T09:21:10.760Z,3.80
2022-11-03T09:23:37.385Z,3.40
2022-11-03T09:26:05.715Z,3.20
2022-11-03T09:28:32.922Z,3.50
2022-11-03T09:30:59.549Z,4.30
2022-11-03T09:33:26.234Z,4.10
2022-11-03T09:35:52.865Z,4.95
2022-11-03T09:38:19.552Z,4.50
2022-11-03T09:40:46.421Z,4.18
2022-11-03T09:43:13.121Z,4.97
2022-11-03T09:45:39.843Z,4.75
2022-11-03T09:50:37.539Z,4.57
2022-11-03T09:53:04.737Z,5.35
2022-11-03T09:55:33.524Z,4.95
2022-11-03T09:58:08.592Z,6.07
2022-11-03T10:00:35.588Z,4.82
2022-11-03T10:03:03.863Z,4.40
2022-11-03T10:05:31.066Z,5.35
2022-11-03T10:08:07.011Z,4.45
2022-11-03T10:10:34.926Z,5.68
2022-11-03T10:13:01.769Z,4.80
2022-11-03T10:15:29.088Z,5.45
2022-11-03T10:17:56.534Z,5.63
2022-11-03T10:20:23.683Z,5.25
2022-11-03T10:22:53.325Z,5.30
2022-11-03T10:25:35.927Z,4.43
2022-11-03T10:28:22.396Z,4.47
2022-11-03T10:31:13.948Z,4.30
2022-11-03T10:33:55.410Z,3.92
2022-11-03T10:36:25.395Z,3.67
2022-11-03T10:38:52.719Z,4.40
2022-11-03T10:41:20.624Z,5.18
2022-11-03T10:44:19.677Z,4.13
2022-11-03T10:47:02.806Z,4.25
2022-11-03T10:49:39.399Z,4.20
2022-11-03T10:52:23.993Z,3.88
2022-11-03T10:54:54.125Z,4.07
2022-11-03T10:57:22.508Z,3.75
2022-11-03T10:59:51.270Z,3.95
2022-11-03T11:02:25.349Z,3.92
2022-11-03T11:05:09.987Z,5.43
2022-11-03T11:07:41.761Z,4.75
2022-11-03T11:10:19.463Z,4.60
2022-11-03T11:13:18.592Z,5.55
2022-11-03T11:15:52.963Z,4.95
2022-11-03T11:18:59.854Z,5.15
2022-11-03T11:21:26.497Z,4.43
2022-11-03T11:26:25.776Z,5.47
2022-11-03T11:29:30.648Z,4.40
2022-11-03T11:31:57.311Z,4.65
2022-11-03T11:36:56.507Z,4.63
2022-11-03T11:39:23.165Z,5.35
2022-11-03T11:44:49.796Z,5.65
2022-11-03T11:47:40.518Z,5.75
2022-11-03T11:50:07.261Z,5.07
2022-11-03T11:55:12.819Z,4.93
2022-11-03T11:57:39.492Z,4.97
2022-11-03T12:02:38.977Z,4.75
2022-11-03T12:05:07.693Z,5.38
2022-11-03T12:07:37.553Z,5.20
2022-11-03T12:10:19.361Z,5.07
2022-11-03T12:12:46.387Z,4.25
2022-11-03T12:16:01.410Z,4.57
2022-11-03T12:18:47.695Z,4.88
2022-11-03T12:21:46.309Z,4.53
2022-11-03T12:24:31.382Z,4.60
2022-11-03T12:27:02.035Z,4.43
2022-11-03T12:29:28.931Z,4.95
2022-11-03T12:31:55.702Z,4.80
2022-11-03T12:34:22.394Z,4.97
2022-11-03T12:39:22.891Z,4.18
2022-11-03T12:41:49.536Z,4.70
2022-11-03T12:46:43.031Z,4.72
2022-11-03T12:51:36.700Z,5.18
2022-11-03T12:54:03.475Z,5.63
2022-11-03T12:56:30.139Z,4.65
2022-11-03T12:58:56.911Z,6.32
2022-11-03T13:03:50.392Z,7.63
2022-11-03T13:08:45.696Z,13.10
2022-11-03T13:11:33.310Z,11.88
2022-11-03T13:14:00.036Z,12.60
2022-11-03T13:18:53.301Z,12.07
2022-11-03T13:23:46.721Z,12.63
2022-11-03T13:28:40.544Z,12.82
2022-11-03T13:31:07.227Z,12.25
2022-11-03T13:36:00.601Z,12.35
2022-11-03T13:38:27.358Z,11.18
2022-11-03T13:40:57.015Z,12.30
2022-11-03T13:43:24.852Z,12.60
2022-11-03T13:45:52.915Z,15.68
2022-11-03T13:49:21.567Z,15.15
2022-11-03T13:51:06.650Z,15.20
2022-11-03T13:56:22.178Z,16.02
2022-11-03T14:01:38.822Z,15.52
2022-11-03T14:06:52.508Z,15.77
2022-11-03T14:12:04.776Z,14.63
2022-11-03T14:14:31.505Z,12.57
2022-11-03T14:16:58.242Z,15.55
2022-11-03T14:19:33.363Z,16.77
2022-11-03T14:22:03.457Z,15.52
2022-11-03T14:24:30.138Z,14.52
2022-11-03T14:29:23.406Z,11.23
2022-11-03T14:31:50.113Z,9.40
2022-11-03T14:34:16.947Z,6.90
2022-11-03T14:36:43.906Z,8.57
2022-11-03T14:39:10.589Z,6.90
2022-11-03T14:41:56.223Z,13.95
2022-11-03T14:44:23.108Z,14.05
2022-11-03T14:49:16.318Z,12.30
2022-11-03T14:51:43.009Z,11.77
2022-11-03T14:56:36.289Z,16.90
2022-11-03T14:59:02.976Z,19.10
2022-11-03T15:01:29.755Z,19.10
2022-11-03T15:03:56.800Z,19.70
2022-11-03T15:08:55.936Z,18.05
2022-11-03T15:11:23.162Z,17.20
2022-11-03T15:13:52.329Z,17.50
2022-11-03T15:16:19.402Z,20.20
2022-11-03T15:18:46.070Z,17.73
2022-11-03T15:21:12.949Z,17.23
2022-11-03T15:26:26.195Z,17.13
2022-11-03T15:28:52.874Z,15.38
2022-11-03T15:31:19.574Z,15.55
2022-11-03T15:33:46.245Z,19.83
2022-11-03T15:36:12.942Z,18.15
2022-11-03T15:41:15.697Z,19.48
2022-11-03T15:43:44.058Z,17.48
2022-11-03T15:46:11.358Z,15.00
2022-11-03T15:48:38.759Z,20.52
2022-11-03T15:51:06.090Z,19.83
2022-11-03T15:53:33.388Z,15.90
2022-11-03T15:56:00.238Z,18.70
2022-11-03T16:00:53.572Z,17.25
2022-11-03T16:05:47.219Z,19.40
2022-11-03T16:10:44.661Z,19.90
2022-11-03T16:13:16.281Z,20.55
2022-11-03T16:18:09.854Z,21.50
2022-11-03T16:20:36.811Z,18.60
2022-11-03T16:23:03.472Z,17.90
2022-11-03T16:25:30.600Z,16.95
2022-11-03T16:27:57.355Z,16.55
2022-11-03T16:30:24.043Z,19.20
2022-11-03T16:32:52.995Z,17.30
2022-11-03T16:35:20.495Z,16.83
2022-11-03T16:37:47.201Z,17.25
2022-11-03T16:40:18.977Z,17.25
2022-11-03T16:42:46.850Z,18.13
2022-11-03T16:45:17.233Z,19.25
2022-11-03T16:47:44.722Z,18.45
2022-11-03T16:50:11.885Z,15.48
2022-11-03T16:52:38.843Z,17.67
2022-11-03T16:55:06.425Z,20.50
2022-11-03T16:57:33.144Z,18.92
2022-11-03T16:59:59.841Z,16.27
2022-11-03T17:02:27.866Z,16.55
2022-11-03T17:04:54.983Z,17.65
2022-11-03T17:07:21.665Z,17.77
2022-11-03T17:09:48.449Z,18.35
2022-11-03T17:12:15.232Z,18.58
2022-11-03T17:14:42.178Z,18.70
2022-11-03T17:17:08.933Z,15.77
2022-11-03T17:19:35.564Z,17.05
2022-11-03T17:22:02.196Z,16.85
2022-11-03T17:24:28.830Z,19.52
2022-11-03T17:27:01.568Z,19.75
2022-11-03T17:29:35.255Z,20.17
2022-11-03T17:32:06.965Z,24.77
2022-11-03T17:34:33.865Z,21.92
2022-11-03T17:39:34.302Z,20.92
2022-11-03T17:42:25.391Z,17.40
2022-11-03T17:44:55.430Z,19.05
2022-11-03T17:47:23.209Z,23.10
2022-11-03T17:49:50.369Z,23.23
2022-11-03T17:52:30.785Z,23.17
2022-11-03T17:54:58.919Z,20.88
2022-11-03T17:57:26.558Z,25.80
2022-11-03T17:59:55.321Z,21.98
2022-11-03T18:02:26.837Z,23.77
2022-11-03T18:05:01.046Z,20.25
2022-11-03T18:07:29.694Z,21.25
2022-11-03T18:09:56.430Z,18.77
2022-11-03T18:12:48.673Z,18.67
2022-11-03T18:15:19.533Z,21.05
2022-11-03T18:17:46.994Z,21.50
2022-11-03T18:20:19.860Z,21.73
2022-11-03T18:22:46.691Z,22.80
2022-11-03T18:27:41.919Z,29.40
2022-11-03T18:30:10.359Z,27.10
2022-11-03T18:32:38.610Z,27.80
2022-11-03T18:35:06.205Z,24.58
2022-11-03T18:37:33.646Z,25.83
2022-11-03T18:40:00.354Z,22.38
2022-11-03T18:42:26.974Z,24.40
2022-11-03T18:44:54.853Z,24.95
2022-11-03T18:47:26.677Z,23.08
2022-11-03T18:49:53.372Z,24.77
2022-11-03T18:52:20.569Z,25.30
2022-11-03T18:54:52.255Z,22.55
2022-11-03T18:57:25.277Z,24.38
2022-11-03T18:59:52.253Z,22.83
2022-11-03T19:02:21.131Z,21.73
2022-11-03T19:04:48.751Z,23.08
2022-11-03T19:07:30.875Z,22.48
2022-11-03T19:09:58.555Z,25.65
2022-11-03T19:12:25.245Z,24.33
2022-11-03T19:14:52.420Z,22.17
2022-11-03T19:17:23.459Z,22.70
2022-11-03T19:19:50.558Z,22.42
2022-11-03T19:24:45.407Z,22.48
2022-11-03T19:27:20.307Z,26.13
2022-11-03T19:29:47.773Z,21.63
2022-11-03T19:32:25.015Z,23.88
2022-11-03T19:37:23.980Z,21.90
2022-11-03T19:39:50.654Z,21.63
2022-11-03T19:42:29.272Z,20.58
2022-11-03T19:44:58.285Z,24.55
2022-11-03T19:48:23.630Z,24.00
2022-11-03T19:50:42.399Z,24.02
2022-11-03T19:53:16.088Z,23.05
2022-11-03T19:55:42.810Z,23.83
2022-11-03T19:58:20.700Z,22.80
2022-11-03T20:00:47.718Z,25.42
2022-11-03T20:03:14.791Z,21.02
2022-11-03T20:05:48.798Z,23.23
2022-11-03T20:08:18.940Z,23.30
2022-11-03T20:10:47.605Z,21.15
2022-11-03T20:13:16.372Z,23.35
2022-11-03T20:15:43.058Z,22.58
2022-11-03T20:18:11.895Z,22.92
2022-11-03T20:20:40.116Z,21.45
2022-11-03T20:23:14.299Z,25.08
2022-11-03T20:25:42.180Z,25.20
2022-11-03T20:28:18.914Z,26.73
2022-11-03T20:30:45.850Z,26.70
2022-11-03T20:33:17.390Z,27.23
2022-11-03T20:35:44.997Z,26.33
2022-11-03T20:38:13.210Z,25.92
2022-11-03T20:40:41.025Z,25.00
2022-11-03T20:43:26.483Z,27.13
2022-11-03T20:45:56.798Z,26.20
2022-11-03T20:48:24.467Z,24.35
2022-11-03T20:50:52.200Z,24.90
2022-11-03T20:53:21.217Z,26.83
2022-11-03T20:55:48.479Z,26.42
2022-11-03T20:58:17.704Z,27.50
2022-11-03T21:00:47.077Z,26.63
2022-11-03T21:06:16.372Z,27.75
2022-11-03T21:08:44.531Z,26.58
2022-11-03T21:11:24.748Z,26.80
2022-11-03T21:13:53.245Z,24.92
2022-11-03T21:16:38.905Z,23.83
2022-11-03T21:19:35.200Z,24.38
2022-11-03T21:22:02.378Z,22.67
2022-11-03T21:24:29.138Z,22.75
2022-11-03T21:29:38.985Z,25.05
2022-11-03T21:32:14.722Z,25.55
2022-11-03T21:34:42.246Z,24.80
2022-11-03T21:37:16.049Z,25.13
2022-11-03T21:39:43.728Z,21.08
2022-11-03T21:42:30.838Z,20.63
2022-11-03T21:44:58.373Z,17.70
2022-11-03T21:47:25.164Z,16.73
2022-11-03T21:52:31.528Z,15.23
2022-11-03T21:55:02.695Z,13.85
2022-11-03T21:57:29.757Z,13.23
2022-11-03T21:59:59.352Z,8.85
2022-11-03T22:02:26.976Z,5.97
2022-11-03T22:04:56.910Z,3.92
2022-11-03T22:07:24.110Z,3.95
2022-11-03T22:09:50.818Z,3.10
2022-11-03T22:12:17.547Z,3.28
2022-11-03T22:15:03.044Z,3.17
2022-11-03T22:17:29.835Z,2.88
2022-11-03T22:23:00.564Z,2.17
2022-11-03T22:25:46.176Z,1.98
2022-11-03T22:28:14.805Z,2.20
2022-11-03T22:31:00.994Z,1.88
2022-11-03T22:33:27.781Z,1.45
2022-11-03T22:36:23.773Z,1.95
2022-11-03T22:39:09.545Z,1.40
2022-11-03T22:41:54.877Z,2.33
2022-11-03T22:44:40.321Z,0.82
2022-11-03T22:47:08.561Z,0.82
2022-11-03T22:49:35.780Z,0.70
2022-11-03T22:54:29.488Z,0.82
2022-11-03T22:56:56.245Z,0.77
2022-11-03T23:01:49.667Z,0.60
2022-11-03T23:04:16.500Z,0.60
2022-11-03T23:06:43.306Z,0.70
2022-11-03T23:11:38.721Z,0.65
2022-11-03T23:14:08.492Z,0.65
2022-11-03T23:16:40.045Z,0.70
2022-11-03T23:19:28.421Z,0.43
2022-11-03T23:21:55.487Z,0.47
2022-11-03T23:24:45.089Z,0.52
2022-11-03T23:27:13.569Z,0.47
2022-11-03T23:29:40.709Z,0.60
2022-11-03T23:32:07.630Z,0.45
2022-11-03T23:34:37.320Z,0.98
2022-11-03T23:37:04.016Z,0.43
2022-11-03T23:39:30.662Z,0.90
2022-11-03T23:41:57.392Z,0.98
2022-11-03T23:47:09.220Z,1.15
2022-11-03T23:49:35.884Z,0.80
2022-11-03T23:52:02.613Z,0.60
2022-11-03T23:57:14.693Z,0.63
2022-11-03T23:59:41.462Z,0.70
